sensor_id;sensor_type;location;lat;lon;timestamp;P1;durP1;ratioP1;P2;durP2;ratioP2
239;SDS011;104;53.590;10.004;2023-08-21T09:08:59;19.10;;;13.70;;
239;SDS011;104;53.590;10.004;2023-08-21T09:11:26;29.07;;;14.30;;
239;SDS011;104;53.590;10.004;2023-08-21T09:13:54;27.97;;;14.30;;
239;SDS011;104;53.590;10.004;2023-08-21T09:16:22;24.90;;;14.30;;
239;SDS011;104;53.590;10.004;2023-08-21T09:18:51;25.00;;;14.70;;
239;SDS011;104;53.590;10.004;2023-08-21T09:21:19;22.90;;;14.23;;
239;SDS011;104;53.590;10.004;2023-08-21T09:23:46;25.77;;;15.30;;
239;SDS011;104;53.590;10.004;2023-08-21T09:26:19;19.07;;;13.00;;
239;SDS011;104;53.590;10.004;2023-08-21T09:28:46;18.93;;;13.70;;
239;SDS011;104;53.590;10.004;2023-08-21T09:31:14;18.10;;;13.63;;
239;SDS011;104;53.590;10.004;2023-08-21T09:33:42;21.38;;;13.15;;
239;SDS011;104;53.590;10.004;2023-08-21T09:36:09;17.80;;;13.50;;
239;SDS011;104;53.590;10.004;2023-08-21T09:38:38;18.90;;;13.63;;
239;SDS011;104;53.590;10.004;2023-08-21T09:41:06;29.10;;;14.75;;
239;SDS011;104;53.590;10.004;2023-08-21T09:43:40;19.00;;;13.15;;
239;SDS011;104;53.590;10.004;2023-08-21T09:46:08;20.67;;;13.13;;
239;SDS011;104;53.590;10.004;2023-08-21T09:48:35;25.40;;;12.98;;
239;SDS011;104;53.590;10.004;2023-08-21T09:51:03;18.40;;;13.15;;
239;SDS011;104;53.590;10.004;2023-08-21T09:53:30;20.15;;;12.88;;
239;SDS011;104;53.590;10.004;2023-08-21T09:55:58;21.05;;;13.15;;
239;SDS011;104;53.590;10.004;2023-08-21T09:58:29;21.35;;;13.00;;
239;SDS011;104;53.590;10.004;2023-08-21T10:00:57;17.67;;;12.38;;
239;SDS011;104;53.590;10.004;2023-08-21T10:03:25;19.63;;;12.93;;
239;SDS011;104;53.590;10.004;2023-08-21T10:05:53;20.17;;;12.63;;
239;SDS011;104;53.590;10.004;2023-08-21T10:08:24;16.38;;;11.68;;
239;SDS011;104;53.590;10.004;2023-08-21T10:10:52;18.83;;;12.52;;
239;SDS011;104;53.590;10.004;2023-08-21T10:13:19;17.35;;;11.43;;
239;SDS011;104;53.590;10.004;2023-08-21T10:15:46;19.52;;;10.50;;
239;SDS011;104;53.590;10.004;2023-08-21T10:18:22;14.70;;;10.40;;
239;SDS011;104;53.590;10.004;2023-08-21T10:20:49;16.92;;;10.60;;
239;SDS011;104;53.590;10.004;2023-08-21T10:23:24;12.57;;;10.88;;
239;SDS011;104;53.590;10.004;2023-08-21T10:25:54;14.30;;;10.65;;
239;SDS011;104;53.590;10.004;2023-08-21T10:28:21;15.88;;;10.80;;
239;SDS011;104;53.590;10.004;2023-08-21T10:30:49;18.85;;;12.30;;
239;SDS011;104;53.590;10.004;2023-08-21T10:33:16;14.95;;;11.20;;
239;SDS011;104;53.590;10.004;2023-08-21T10:35:47;18.77;;;12.02;;
239;SDS011;104;53.590;10.004;2023-08-21T10:38:15;15.02;;;12.10;;
239;SDS011;104;53.590;10.004;2023-08-21T10:43:38;15.15;;;9.70;;
239;SDS011;104;53.590;10.004;2023-08-21T10:46:06;17.73;;;11.10;;
239;SDS011;104;53.590;10.004;2023-08-21T10:48:34;14.23;;;10.52;;
239;SDS011;104;53.590;10.004;2023-08-21T10:51:07;11.93;;;10.25;;
239;SDS011;104;53.590;10.004;2023-08-21T10:53:38;16.63;;;11.13;;
239;SDS011;104;53.590;10.004;2023-08-21T10:56:08;16.90;;;11.02;;
239;SDS011;104;53.590;10.004;2023-08-21T10:58:47;22.45;;;11.18;;
239;SDS011;104;53.590;10.004;2023-08-21T11:01:41;15.65;;;11.13;;
239;SDS011;104;53.590;10.004;2023-08-21T11:04:09;19.70;;;11.43;;
239;SDS011;104;53.590;10.004;2023-08-21T11:06:38;12.25;;;10.65;;
239;SDS011;104;53.590;10.004;2023-08-21T11:09:12;13.55;;;10.93;;
239;SDS011;104;53.590;10.004;2023-08-21T11:11:39;15.20;;;10.63;;
239;SDS011;104;53.590;10.004;2023-08-21T11:14:06;14.68;;;10.68;;
239;SDS011;104;53.590;10.004;2023-08-21T11:16:34;14.02;;;10.02;;
239;SDS011;104;53.590;10.004;2023-08-21T11:19:03;17.27;;;11.82;;
239;SDS011;104;53.590;10.004;2023-08-21T11:21:31;19.58;;;11.38;;
239;SDS011;104;53.590;10.004;2023-08-21T11:23:59;19.60;;;10.95;;
239;SDS011;104;53.590;10.004;2023-08-21T11:26:27;18.13;;;10.18;;
239;SDS011;104;53.590;10.004;2023-08-21T11:28:54;23.00;;;11.73;;
239;SDS011;104;53.590;10.004;2023-08-21T11:31:22;21.42;;;10.73;;
239;SDS011;104;53.590;10.004;2023-08-21T11:33:50;15.82;;;11.52;;
239;SDS011;104;53.590;10.004;2023-08-21T11:36:17;16.33;;;11.43;;
239;SDS011;104;53.590;10.004;2023-08-21T11:38:57;14.40;;;10.80;;
239;SDS011;104;53.590;10.004;2023-08-21T11:41:26;21.10;;;11.77;;
239;SDS011;104;53.590;10.004;2023-08-21T11:43:57;19.83;;;11.35;;
239;SDS011;104;53.590;10.004;2023-08-21T11:46:28;20.13;;;12.77;;
239;SDS011;104;53.590;10.004;2023-08-21T11:48:55;16.05;;;11.73;;
239;SDS011;104;53.590;10.004;2023-08-21T11:51:22;19.85;;;11.20;;
239;SDS011;104;53.590;10.004;2023-08-21T11:53:50;18.27;;;11.57;;
239;SDS011;104;53.590;10.004;2023-08-21T11:56:19;19.20;;;11.90;;
239;SDS011;104;53.590;10.004;2023-08-21T11:58:47;33.15;;;11.45;;
239;SDS011;104;53.590;10.004;2023-08-21T12:01:16;30.77;;;12.88;;
239;SDS011;104;53.590;10.004;2023-08-21T12:03:43;23.27;;;10.75;;
239;SDS011;104;53.590;10.004;2023-08-21T12:06:11;16.23;;;10.43;;
239;SDS011;104;53.590;10.004;2023-08-21T12:08:39;15.38;;;11.05;;
239;SDS011;104;53.590;10.004;2023-08-21T12:11:06;15.50;;;10.65;;
239;SDS011;104;53.590;10.004;2023-08-21T12:13:34;25.73;;;11.52;;
239;SDS011;104;53.590;10.004;2023-08-21T12:16:02;15.57;;;11.00;;
239;SDS011;104;53.590;10.004;2023-08-21T12:18:30;26.38;;;11.60;;
239;SDS011;104;53.590;10.004;2023-08-21T12:20:57;18.42;;;10.20;;
239;SDS011;104;53.590;10.004;2023-08-21T12:23:24;18.10;;;12.23;;
239;SDS011;104;53.590;10.004;2023-08-21T12:25:52;16.50;;;11.02;;
239;SDS011;104;53.590;10.004;2023-08-21T12:28:19;16.73;;;11.30;;
239;SDS011;104;53.590;10.004;2023-08-21T12:30:46;22.30;;;12.73;;
239;SDS011;104;53.590;10.004;2023-08-21T12:33:15;22.73;;;11.48;;
239;SDS011;104;53.590;10.004;2023-08-21T12:35:42;11.23;;;9.68;;
239;SDS011;104;53.590;10.004;2023-08-21T12:38:10;15.38;;;10.82;;
239;SDS011;104;53.590;10.004;2023-08-21T12:40:38;14.75;;;10.40;;
239;SDS011;104;53.590;10.004;2023-08-21T12:43:06;15.23;;;10.65;;
239;SDS011;104;53.590;10.004;2023-08-21T12:45:33;21.13;;;10.52;;
239;SDS011;104;53.590;10.004;2023-08-21T12:48:00;21.38;;;12.07;;
239;SDS011;104;53.590;10.004;2023-08-21T12:50:30;19.50;;;11.60;;
239;SDS011;104;53.590;10.004;2023-08-21T12:52:57;15.02;;;10.50;;
239;SDS011;104;53.590;10.004;2023-08-21T12:55:25;24.35;;;10.23;;
239;SDS011;104;53.590;10.004;2023-08-21T12:57:52;16.40;;;10.25;;
239;SDS011;104;53.590;10.004;2023-08-21T13:00:20;16.05;;;10.55;;
239;SDS011;104;53.590;10.004;2023-08-21T13:02:47;13.27;;;10.43;;
239;SDS011;104;53.590;10.004;2023-08-21T13:05:14;18.52;;;12.15;;
239;SDS011;104;53.590;10.004;2023-08-21T13:07:43;17.52;;;10.40;;
239;SDS011;104;53.590;10.004;2023-08-21T13:10:11;16.25;;;10.07;;
239;SDS011;104;53.590;10.004;2023-08-21T13:12:38;22.45;;;10.43;;
239;SDS011;104;53.590;10.004;2023-08-21T13:15:06;15.40;;;10.23;;
239;SDS011;104;53.590;10.004;2023-08-21T13:17:33;15.82;;;10.82;;
239;SDS011;104;53.590;10.004;2023-08-21T13:20:01;20.83;;;10.35;;
239;SDS011;104;53.590;10.004;2023-08-21T13:22:28;20.13;;;10.15;;
239;SDS011;104;53.590;10.004;2023-08-21T13:24:57;20.38;;;10.60;;
239;SDS011;104;53.590;10.004;2023-08-21T13:27:25;20.10;;;10.48;;
239;SDS011;104;53.590;10.004;2023-08-21T13:29:53;14.85;;;10.20;;
239;SDS011;104;53.590;10.004;2023-08-21T13:32:22;19.65;;;11.60;;
239;SDS011;104;53.590;10.004;2023-08-21T13:34:50;15.57;;;11.15;;
239;SDS011;104;53.590;10.004;2023-08-21T13:37:17;22.30;;;12.05;;
239;SDS011;104;53.590;10.004;2023-08-21T13:39:44;15.55;;;11.73;;
239;SDS011;104;53.590;10.004;2023-08-21T13:42:13;13.70;;;10.93;;
239;SDS011;104;53.590;10.004;2023-08-21T13:44:44;17.33;;;11.30;;
239;SDS011;104;53.590;10.004;2023-08-21T13:47:11;15.95;;;11.43;;
239;SDS011;104;53.590;10.004;2023-08-21T13:49:38;17.08;;;11.95;;
239;SDS011;104;53.590;10.004;2023-08-21T13:52:06;15.63;;;11.35;;
239;SDS011;104;53.590;10.004;2023-08-21T13:54:33;18.92;;;10.10;;
239;SDS011;104;53.590;10.004;2023-08-21T13:57:02;23.48;;;11.73;;
239;SDS011;104;53.590;10.004;2023-08-21T13:59:31;19.35;;;11.43;;
239;SDS011;104;53.590;10.004;2023-08-21T14:01:59;16.33;;;10.82;;
239;SDS011;104;53.590;10.004;2023-08-21T16:42:50;23.45;;;11.45;;
239;SDS011;104;53.590;10.004;2023-08-21T16:45:17;39.38;;;11.68;;
239;SDS011;104;53.590;10.004;2023-08-21T16:47:44;18.17;;;11.23;;
239;SDS011;104;53.590;10.004;2023-08-21T16:50:12;23.45;;;11.52;;
239;SDS011;104;53.590;10.004;2023-08-21T16:52:39;28.65;;;11.57;;
239;SDS011;104;53.590;10.004;2023-08-21T17:42:15;22.08;;;11.55;;
239;SDS011;104;53.590;10.004;2023-08-21T17:44:44;19.67;;;12.90;;
239;SDS011;104;53.590;10.004;2023-08-21T17:47:11;23.40;;;13.30;;
239;SDS011;104;53.590;10.004;2023-08-21T17:49:38;22.35;;;11.95;;
239;SDS011;104;53.590;10.004;2023-08-21T17:52:06;27.65;;;12.82;;
239;SDS011;104;53.590;10.004;2023-08-21T17:54:47;22.05;;;12.52;;
239;SDS011;104;53.590;10.004;2023-08-21T17:57:18;27.88;;;12.10;;
239;SDS011;104;53.590;10.004;2023-08-21T17:59:46;21.13;;;12.13;;
239;SDS011;104;53.590;10.004;2023-08-21T18:02:14;33.10;;;12.48;;
239;SDS011;104;53.590;10.004;2023-08-21T18:04:41;25.65;;;14.48;;
239;SDS011;104;53.590;10.004;2023-08-21T18:07:09;24.58;;;13.43;;
239;SDS011;104;53.590;10.004;2023-08-21T18:09:36;26.95;;;13.10;;
239;SDS011;104;53.590;10.004;2023-08-21T18:12:08;21.05;;;12.80;;
239;SDS011;104;53.590;10.004;2023-08-21T18:14:39;25.23;;;13.25;;
239;SDS011;104;53.590;10.004;2023-08-21T18:17:06;22.85;;;14.15;;
239;SDS011;104;53.590;10.004;2023-08-21T18:22:08;30.93;;;12.60;;
239;SDS011;104;53.590;10.004;2023-08-21T18:24:37;21.50;;;13.20;;
239;SDS011;104;53.590;10.004;2023-08-21T18:27:07;28.90;;;13.90;;
239;SDS011;104;53.590;10.004;2023-08-21T18:29:57;24.30;;;12.57;;
239;SDS011;104;53.590;10.004;2023-08-21T18:32:29;20.43;;;12.93;;
